Time;durP1;ratioP1;P1;durP2;ratioP2;P2;SDS_P1;SDS_P2;PMS_P1;PMS_P2;Temp;Humidity;BMP_temperature;BMP_pressure;BME280_temperature;BME280_humidity;BME280_pressure;Samples;Min_cycle;Max_cycle;Signal;HPM_P1;HPM_P2
2021/05/30 00:02:06;;;;;;;3.63;3.03;;;12.10;99.90;;;;;;5097550;28;20185;-63
2021/05/30 00:04:32;;;;;;;3.40;3.10;;;12.10;99.90;;;;;;5097504;28;20614;-52
2021/05/30 00:06:58;;;;;;;4.37;2.60;;;12.10;99.90;;;;;;5097366;28;20202;-61
2021/05/30 00:09:23;;;;;;;3.30;2.80;;;12.00;99.90;;;;;;5097766;28;20222;-59
2021/05/30 00:11:49;;;;;;;4.00;2.90;;;12.00;99.90;;;;;;5096975;28;20253;-57
2021/05/30 00:14:14;;;;;;;3.83;2.70;;;11.90;99.90;;;;;;5097749;28;20575;-51
2021/05/30 00:16:40;;;;;;;3.10;2.80;;;11.90;99.90;;;;;;5095760;28;20542;-62
2021/05/30 00:19:06;;;;;;;4.43;2.87;;;11.90;99.90;;;;;;5095659;28;20575;-61
2021/05/30 00:21:31;;;;;;;4.73;3.00;;;11.90;99.90;;;;;;5094997;28;20170;-62
2021/05/30 00:23:58;;;;;;;3.40;3.07;;;11.80;99.90;;;;;;5097116;28;20664;-62
2021/05/30 00:26:24;;;;;;;3.87;3.00;;;11.80;99.90;;;;;;5096935;28;20189;-61
2021/05/30 00:28:50;;;;;;;3.87;3.03;;;11.70;99.90;;;;;;5097034;28;20178;-56
2021/05/30 00:31:16;;;;;;;5.93;3.20;;;11.70;99.90;;;;;;5096915;28;20533;-61
2021/05/30 00:33:41;;;;;;;3.60;3.13;;;11.70;99.90;;;;;;5096798;28;20197;-53
2021/05/30 00:36:07;;;;;;;3.83;3.17;;;11.60;99.90;;;;;;5094828;28;20216;-62
2021/05/30 00:38:33;;;;;;;3.07;2.77;;;11.50;99.90;;;;;;5094613;28;20185;-54
2021/05/30 00:40:58;;;;;;;3.53;3.23;;;11.50;99.90;;;;;;5094436;28;20166;-62
2021/05/30 00:43:24;;;;;;;3.27;2.83;;;11.50;99.90;;;;;;5096420;28;20186;-62
2021/05/30 00:45:50;;;;;;;4.67;3.13;;;11.40;99.90;;;;;;5097238;28;20260;-56
2021/05/30 00:48:16;;;;;;;2.90;2.70;;;11.40;99.90;;;;;;5096649;28;20194;-62
2021/05/30 00:50:42;;;;;;;3.23;2.93;;;11.40;99.90;;;;;;5096774;28;20227;-62
2021/05/30 00:53:09;;;;;;;4.33;3.10;;;11.30;99.90;;;;;;5096151;28;20204;-62
2021/05/30 00:55:35;;;;;;;3.70;3.23;;;11.30;99.90;;;;;;5097101;28;20173;-55
2021/05/30 00:58:01;;;;;;;4.07;3.20;;;11.30;99.90;;;;;;5096489;28;20194;-58
2021/05/30 01:00:26;;;;;;;3.80;3.07;;;11.20;99.90;;;;;;5097073;28;20180;-62
2021/05/30 01:02:52;;;;;;;5.37;3.10;;;11.20;99.90;;;;;;5096561;28;20622;-61
2021/05/30 01:05:18;;;;;;;4.13;3.33;;;11.20;99.90;;;;;;5096633;28;20182;-51
2021/05/30 01:07:46;;;;;;;3.43;3.13;;;11.20;99.90;;;;;;5096449;28;20239;-52
2021/05/30 01:10:26;;;;;;;3.83;3.03;;;11.10;99.90;;;;;;5096781;28;20212;-61
2021/05/30 01:12:52;;;;;;;3.73;3.30;;;11.10;99.90;;;;;;5095859;28;20577;-62
2021/05/30 01:15:18;;;;;;;3.40;3.10;;;11.00;99.90;;;;;;5096834;28;20180;-62
2021/05/30 01:17:46;;;;;;;3.10;2.57;;;11.00;99.90;;;;;;5096249;28;20242;-58
2021/05/30 01:20:14;;;;;;;3.37;3.07;;;10.90;99.90;;;;;;5096134;28;20199;-57
2021/05/30 01:22:42;;;;;;;2.97;2.67;;;10.90;99.90;;;;;;5095846;28;20638;-62
2021/05/30 01:25:09;;;;;;;3.10;2.80;;;10.90;99.90;;;;;;5096111;28;20207;-56
2021/05/30 01:27:35;;;;;;;3.63;3.10;;;10.90;99.90;;;;;;5095684;28;20749;-61
2021/05/30 01:30:00;;;;;;;3.53;3.10;;;10.90;99.90;;;;;;5096019;28;20170;-56
2021/05/30 01:32:26;;;;;;;3.43;3.00;;;10.90;99.90;;;;;;5095812;28;20204;-61
2021/05/30 01:34:51;;;;;;;3.33;2.90;;;10.90;99.90;;;;;;5096373;28;20170;-58
2021/05/30 01:37:17;;;;;;;3.93;3.10;;;10.90;99.90;;;;;;5096421;28;20499;-62
2021/05/30 01:39:43;;;;;;;3.43;2.83;;;10.90;99.90;;;;;;5096086;28;20182;-60
2021/05/30 01:42:08;;;;;;;3.10;2.80;;;10.90;99.90;;;;;;5095662;28;20228;-61
2021/05/30 01:44:34;;;;;;;4.17;3.30;;;10.90;99.90;;;;;;5095686;28;20192;-60
2021/05/30 01:46:59;;;;;;;3.93;3.10;;;10.80;99.90;;;;;;5095523;28;20185;-62
2021/05/30 01:49:25;;;;;;;3.53;3.00;;;10.80;99.90;;;;;;5095900;28;20299;-61
2021/05/30 01:51:50;;;;;;;2.83;2.50;;;10.80;99.90;;;;;;5095412;28;20583;-58
2021/05/30 01:54:19;;;;;;;3.33;3.03;;;10.90;99.90;;;;;;5095393;28;20589;-62
2021/05/30 01:56:57;;;;;;;3.57;3.00;;;10.80;99.90;;;;;;5095214;28;20277;-62
2021/05/30 01:59:24;;;;;;;4.23;3.50;;;10.80;99.90;;;;;;5095509;28;20826;-61
2021/05/30 02:01:52;;;;;;;3.93;3.27;;;10.80;99.90;;;;;;5095593;28;20218;-51
2021/05/30 02:04:21;;;;;;;3.50;3.20;;;10.80;99.90;;;;;;5094508;28;20162;-56
2021/05/30 02:06:48;;;;;;;4.73;3.47;;;10.70;99.90;;;;;;5095337;28;20272;-62
2021/05/30 02:09:16;;;;;;;3.83;3.43;;;10.70;99.90;;;;;;5095150;28;20211;-62
2021/05/30 02:11:42;;;;;;;4.10;3.60;;;10.80;99.90;;;;;;5094996;28;20177;-62
2021/05/30 02:14:08;;;;;;;4.30;3.23;;;10.80;99.90;;;;;;5095041;28;20169;-59
2021/05/30 02:16:36;;;;;;;5.57;3.83;;;10.80;99.90;;;;;;5094907;28;20197;-61
2021/05/30 02:19:02;;;;;;;5.20;3.40;;;10.80;99.90;;;;;;5095060;28;20169;-62
2021/05/30 02:21:40;;;;;;;5.77;3.30;;;10.50;99.90;;;;;;5095014;28;20166;-60
2021/05/30 02:24:06;;;;;;;5.83;3.63;;;10.00;99.90;;;;;;5094813;28;20597;-57
2021/05/30 02:26:31;;;;;;;4.03;3.60;;;9.60;99.90;;;;;;5095072;28;20277;-61
2021/05/30 02:28:57;;;;;;;4.93;4.30;;;9.50;99.90;;;;;;5094713;28;20530;-60
2021/05/30 02:31:22;;;;;;;4.43;4.03;;;9.50;99.90;;;;;;5094866;28;20248;-60
2021/05/30 02:33:48;;;;;;;3.43;3.13;;;9.60;99.90;;;;;;5094733;28;20208;-53
2021/05/30 02:36:13;;;;;;;3.53;3.23;;;9.80;99.90;;;;;;5094504;28;20189;-61
2021/05/30 02:38:40;;;;;;;3.93;3.50;;;9.80;99.90;;;;;;5094550;28;20226;-57
2021/05/30 02:41:05;;;;;;;4.57;3.73;;;9.90;99.90;;;;;;5092732;28;20680;-62
2021/05/30 02:43:31;;;;;;;4.53;4.10;;;9.90;99.90;;;;;;5094689;28;20253;-62
2021/05/30 02:45:56;;;;;;;3.70;3.40;;;10.00;99.90;;;;;;5093666;28;20169;-60
2021/05/30 02:48:22;;;;;;;4.33;3.93;;;10.10;99.90;;;;;;5094567;28;20170;-61
2021/05/30 02:50:58;;;;;;;4.93;3.60;;;10.20;99.90;;;;;;5094845;28;20174;-60
2021/05/30 02:53:25;;;;;;;5.40;3.70;;;10.20;99.90;;;;;;5079016;28;20205;-62
2021/05/30 02:55:50;;;;;;;4.97;3.90;;;10.20;99.90;;;;;;5074363;28;20171;-58
2021/05/30 02:58:16;;;;;;;4.60;3.70;;;10.20;99.90;;;;;;5074169;28;20182;-62
2021/05/30 03:00:41;;;;;;;5.63;3.93;;;10.30;99.90;;;;;;5074577;28;20163;-62
2021/05/30 03:03:07;;;;;;;4.13;3.47;;;10.30;99.90;;;;;;5074123;28;20185;-52
2021/05/30 03:05:32;;;;;;;7.10;4.43;;;10.40;99.90;;;;;;5074574;28;20619;-53
2021/05/30 03:07:58;;;;;;;3.83;3.43;;;10.30;99.90;;;;;;5074185;28;20194;-55
2021/05/30 03:10:23;;;;;;;4.20;3.80;;;10.20;99.90;;;;;;5074154;28;20174;-53
2021/05/30 03:12:49;;;;;;;3.80;3.47;;;10.20;99.90;;;;;;5073938;28;20252;-54
2021/05/30 03:15:15;;;;;;;4.33;3.77;;;10.10;99.90;;;;;;5073861;28;20592;-61
2021/05/30 03:17:40;;;;;;;4.10;3.70;;;10.20;99.90;;;;;;5073747;28;20190;-61
2021/05/30 03:20:07;;;;;;;4.00;3.60;;;10.10;99.90;;;;;;5073833;28;20535;-61
2021/05/30 03:22:32;;;;;;;6.67;3.70;;;10.00;99.90;;;;;;5073874;28;20206;-59
2021/05/30 03:24:58;;;;;;;5.80;4.03;;;10.00;99.90;;;;;;5073668;28;20179;-59
2021/05/30 03:27:23;;;;;;;5.30;3.90;;;10.00;99.90;;;;;;5073610;28;20190;-61
2021/05/30 03:29:49;;;;;;;4.90;4.40;;;10.00;99.90;;;;;;5090828;28;20189;-53
2021/05/30 03:32:14;;;;;;;4.70;4.10;;;10.00;99.90;;;;;;5093108;28;20197;-61
2021/05/30 03:34:40;;;;;;;4.53;4.13;;;9.80;99.90;;;;;;5093814;28;20205;-54
2021/05/30 03:37:06;;;;;;;6.83;4.27;;;9.60;99.90;;;;;;5093749;28;20211;-61
2021/05/30 03:39:33;;;;;;;5.63;4.23;;;9.50;99.90;;;;;;5093276;28;20228;-60
2021/05/30 03:42:07;;;;;;;6.57;4.77;;;9.40;99.90;;;;;;5093354;28;20166;-51
2021/05/30 03:44:32;;;;;;;4.97;4.47;;;9.40;99.90;;;;;;5091667;28;20249;-56
2021/05/30 03:46:58;;;;;;;5.27;4.60;;;9.20;99.90;;;;;;5093496;28;20268;-62
2021/05/30 03:49:23;;;;;;;7.40;5.07;;;9.10;99.90;;;;;;5093381;28;20182;-56
2021/05/30 03:51:49;;;;;;;5.70;4.80;;;8.90;99.90;;;;;;5093385;28;20182;-58
2021/05/30 03:54:14;;;;;;;6.20;4.80;;;8.80;99.90;;;;;;5093608;28;20181;-61
2021/05/30 03:56:40;;;;;;;6.13;5.10;;;8.60;99.90;;;;;;5091989;28;20186;-60
2021/05/30 03:59:05;;;;;;;9.60;5.70;;;8.60;99.90;;;;;;5091632;28;20280;-54
2021/05/30 04:01:31;;;;;;;6.07;5.47;;;8.40;99.90;;;;;;5093222;28;20197;-54
2021/05/30 04:03:57;;;;;;;6.23;5.00;;;8.40;99.90;;;;;;5092875;28;20253;-61
2021/05/30 04:06:22;;;;;;;6.43;5.50;;;8.40;99.90;;;;;;5093431;28;20280;-56
2021/05/30 04:08:48;;;;;;;5.67;5.03;;;8.40;99.90;;;;;;5093846;28;20256;-57
2021/05/30 04:11:15;;;;;;;5.93;5.33;;;8.50;99.90;;;;;;5093443;28;20177;-51
2021/05/30 04:13:40;;;;;;;6.77;5.63;;;8.60;99.90;;;;;;5093315;28;20213;-51
2021/05/30 04:16:06;;;;;;;6.60;5.37;;;8.60;99.90;;;;;;5093534;28;20240;-57
2021/05/30 04:18:32;;;;;;;7.00;6.00;;;8.70;99.90;;;;;;5093621;28;20166;-61
2021/05/30 04:20:57;;;;;;;6.93;5.20;;;8.90;99.90;;;;;;5093245;28;20636;-52
2021/05/30 04:23:23;;;;;;;5.00;4.60;;;9.10;99.90;;;;;;5093874;28;20173;-54
2021/05/30 04:25:48;;;;;;;6.80;5.07;;;9.30;99.90;;;;;;5093515;28;20697;-61
2021/05/30 04:28:17;;;;;;;6.17;5.50;;;9.40;99.90;;;;;;5096529;28;20276;-60
2021/05/30 04:30:42;;;;;;;5.53;4.67;;;9.60;99.90;;;;;;5097666;28;20177;-51
2021/05/30 04:33:08;;;;;;;5.87;5.20;;;9.70;99.90;;;;;;5095236;28;20213;-53
2021/05/30 04:35:33;;;;;;;6.23;5.53;;;9.60;99.90;;;;;;5097398;28;20208;-51
2021/05/30 04:37:59;;;;;;;5.87;5.27;;;9.60;99.90;;;;;;5095879;28;20197;-57
2021/05/30 04:40:25;;;;;;;7.43;5.73;;;9.60;99.90;;;;;;5097349;28;20181;-62
2021/05/30 04:42:52;;;;;;;7.30;4.73;;;9.40;99.90;;;;;;5095387;28;20268;-61
2021/05/30 04:45:18;;;;;;;5.57;5.00;;;9.30;99.90;;;;;;5096007;28;20181;-52
2021/05/30 04:47:45;;;;;;;5.23;4.73;;;9.30;99.90;;;;;;5096642;28;20239;-53
2021/05/30 04:50:12;;;;;;;5.83;5.23;;;9.30;99.90;;;;;;5095927;28;20610;-60
2021/05/30 04:52:38;;;;;;;6.23;5.50;;;9.30;99.90;;;;;;5096131;28;20213;-51
2021/05/30 04:55:05;;;;;;;6.73;6.07;;;9.30;99.90;;;;;;5095455;28;20181;-61
2021/05/30 04:57:30;;;;;;;7.67;5.83;;;9.30;99.90;;;;;;5096356;28;20553;-56
2021/05/30 04:59:56;;;;;;;6.60;5.73;;;9.30;99.90;;;;;;5096449;28;20253;-62
2021/05/30 05:02:21;;;;;;;6.37;5.70;;;9.40;99.90;;;;;;5094675;28;20647;-51
2021/05/30 05:04:47;;;;;;;6.53;5.80;;;9.50;99.90;;;;;;5096523;28;20638;-54
2021/05/30 05:07:13;;;;;;;6.77;5.23;;;9.40;99.90;;;;;;5095739;28;20193;-59
2021/05/30 05:09:38;;;;;;;6.03;5.43;;;9.50;99.90;;;;;;5094712;28;20177;-59
2021/05/30 05:12:04;;;;;;;7.00;5.50;;;9.50;99.90;;;;;;5096662;28;20188;-51
2021/05/30 05:14:30;;;;;;;6.20;5.60;;;9.50;99.90;;;;;;5096177;28;20525;-57
2021/05/30 05:16:55;;;;;;;6.47;4.90;;;9.50;99.90;;;;;;5095746;28;20209;-58
2021/05/30 05:19:21;;;;;;;5.70;5.10;;;9.50;99.90;;;;;;5095592;28;20166;-60
2021/05/30 05:21:46;;;;;;;5.97;5.40;;;9.60;99.90;;;;;;5095880;28;20166;-61
2021/05/30 05:24:12;;;;;;;5.70;5.10;;;9.70;99.90;;;;;;5094222;28;20205;-59
2021/05/30 05:26:37;;;;;;;6.37;5.30;;;9.70;99.90;;;;;;5096314;28;20239;-60
2021/05/30 05:29:03;;;;;;;5.87;4.97;;;9.60;99.90;;;;;;5095794;28;20176;-61
2021/05/30 05:31:29;;;;;;;6.50;5.20;;;9.70;99.90;;;;;;5095750;28;20166;-59
2021/05/30 05:33:54;;;;;;;6.20;5.33;;;9.70;99.90;;;;;;5095721;28;20624;-57
2021/05/30 05:36:20;;;;;;;6.30;5.07;;;9.80;99.90;;;;;;5095823;28;20243;-59
2021/05/30 05:38:46;;;;;;;7.37;5.50;;;9.90;99.90;;;;;;5095054;28;20181;-61
2021/05/30 05:41:11;;;;;;;6.93;5.53;;;9.90;99.90;;;;;;5095834;28;20177;-57
2021/05/30 05:43:37;;;;;;;5.90;5.30;;;10.00;99.90;;;;;;5095718;28;20165;-57
2021/05/30 05:46:02;;;;;;;6.50;5.90;;;10.00;99.90;;;;;;5095705;28;20212;-58
2021/05/30 05:48:28;;;;;;;6.47;5.60;;;10.00;99.90;;;;;;5095660;28;20300;-61
2021/05/30 05:50:53;;;;;;;7.23;5.33;;;10.10;99.90;;;;;;5095932;28;20182;-58
2021/05/30 05:53:19;;;;;;;7.90;5.50;;;10.30;99.90;;;;;;5095427;28;20680;-59
2021/05/30 05:55:45;;;;;;;5.93;5.30;;;10.40;99.90;;;;;;5095412;28;20174;-60
2021/05/30 05:58:11;;;;;;;6.40;5.63;;;10.50;99.90;;;;;;5095415;28;20204;-51
2021/05/30 06:00:37;;;;;;;7.97;5.73;;;10.50;99.90;;;;;;5095864;28;20170;-59
2021/05/30 06:03:03;;;;;;;6.80;5.63;;;10.50;99.90;;;;;;5095035;28;20212;-54
2021/05/30 06:05:28;;;;;;;6.37;5.67;;;10.60;99.90;;;;;;5095619;28;20178;-56
2021/05/30 06:07:56;;;;;;;6.83;5.63;;;10.60;99.90;;;;;;5095474;28;20657;-62
2021/05/30 06:10:25;;;;;;;6.60;5.43;;;10.60;99.90;;;;;;5095217;28;20177;-55
2021/05/30 06:12:59;;;;;;;7.17;5.47;;;10.60;99.90;;;;;;5094611;28;20202;-61
2021/05/30 06:15:26;;;;;;;8.13;5.77;;;10.70;99.90;;;;;;5094928;28;20533;-52
2021/05/30 06:17:58;;;;;;;6.00;5.40;;;10.80;99.90;;;;;;5095352;28;20289;-54
2021/05/30 06:20:25;;;;;;;7.40;5.90;;;10.90;99.90;;;;;;5095442;28;20202;-61
2021/05/30 06:22:51;;;;;;;6.70;5.83;;;11.10;99.90;;;;;;5095306;28;20178;-61
2021/05/30 06:25:16;;;;;;;6.83;5.83;;;11.20;99.90;;;;;;5095071;28;20256;-56
2021/05/30 06:27:42;;;;;;;7.20;6.27;;;11.30;99.90;;;;;;5095424;28;20200;-58
2021/05/30 06:30:08;;;;;;;7.40;5.50;;;11.40;99.90;;;;;;5095178;28;20580;-51
2021/05/30 06:32:34;;;;;;;6.57;5.90;;;11.60;99.90;;;;;;5094565;28;20214;-60
2021/05/30 06:35:00;;;;;;;6.37;5.63;;;11.70;99.90;;;;;;5094625;28;20162;-62
2021/05/30 06:37:26;;;;;;;6.87;5.80;;;11.80;99.90;;;;;;5094855;28;20186;-62
2021/05/30 06:39:52;;;;;;;5.80;5.20;;;11.80;99.90;;;;;;5094909;28;20169;-61
2021/05/30 06:42:17;;;;;;;9.63;6.10;;;11.80;99.90;;;;;;5092907;28;20190;-62
2021/05/30 06:44:43;;;;;;;6.53;4.93;;;11.90;99.90;;;;;;5094677;28;20240;-60
2021/05/30 06:47:09;;;;;;;6.63;4.80;;;11.90;99.90;;;;;;5094560;28;20202;-62
2021/05/30 06:49:34;;;;;;;5.10;4.60;;;12.00;99.90;;;;;;5094145;28;20173;-51
2021/05/30 06:52:00;;;;;;;4.67;4.27;;;12.00;99.90;;;;;;5094220;28;20181;-57
2021/05/30 06:54:25;;;;;;;5.43;4.93;;;12.10;99.90;;;;;;5094926;28;20166;-57
2021/05/30 06:56:51;;;;;;;5.57;4.63;;;12.20;99.90;;;;;;5094110;28;20280;-61
2021/05/30 06:59:17;;;;;;;5.57;5.00;;;12.20;99.90;;;;;;5094076;28;20170;-61
2021/05/30 07:01:42;;;;;;;5.60;4.90;;;12.30;99.90;;;;;;5094349;28;20166;-51
2021/05/30 07:04:08;;;;;;;6.57;4.80;;;12.50;99.90;;;;;;5094449;28;20637;-61
2021/05/30 07:06:33;;;;;;;5.37;4.20;;;12.60;99.90;;;;;;5092585;28;20210;-61
2021/05/30 07:09:00;;;;;;;4.33;3.77;;;12.70;99.90;;;;;;5094483;28;20181;-61
2021/05/30 07:11:26;;;;;;;4.20;3.80;;;12.80;99.90;;;;;;5093849;28;20645;-60
2021/05/30 07:13:52;;;;;;;4.70;3.73;;;13.10;99.90;;;;;;5093217;28;20247;-56
2021/05/30 07:16:18;;;;;;;5.43;3.87;;;13.40;99.90;;;;;;5094146;28;20202;-62
2021/05/30 07:18:43;;;;;;;5.40;4.10;;;13.60;99.90;;;;;;5094482;28;20182;-53
2021/05/30 07:21:12;;;;;;;4.50;3.90;;;13.70;99.90;;;;;;5094000;28;20700;-57
2021/05/30 07:23:38;;;;;;;4.23;3.47;;;13.90;99.90;;;;;;5094178;28;20175;-60
2021/05/30 07:26:04;;;;;;;4.63;3.67;;;13.90;99.90;;;;;;5092494;28;20580;-58
2021/05/30 07:28:30;;;;;;;3.70;3.20;;;14.80;99.90;;;;;;5089727;28;20180;-62
2021/05/30 07:30:56;;;;;;;3.60;3.30;;;14.30;99.90;;;;;;5079597;28;20222;-61
2021/05/30 07:33:22;;;;;;;4.57;3.80;;;14.50;99.90;;;;;;5080395;28;20223;-62
2021/05/30 07:35:48;;;;;;;5.13;4.00;;;14.60;99.90;;;;;;5092466;28;20170;-52
2021/05/30 07:38:15;;;;;;;6.67;3.50;;;14.60;99.90;;;;;;5093578;28;20210;-60
2021/05/30 07:40:41;;;;;;;4.50;3.40;;;14.70;99.90;;;;;;5091884;28;20178;-58
2021/05/30 07:43:07;;;;;;;4.27;3.40;;;14.70;99.90;;;;;;5093151;28;20614;-60
2021/05/30 07:45:33;;;;;;;3.77;3.40;;;14.80;99.90;;;;;;5092018;28;20192;-62
2021/05/30 07:47:58;;;;;;;4.40;3.30;;;15.10;99.90;;;;;;5091245;28;20202;-58
2021/05/30 07:50:24;;;;;;;3.77;3.37;;;15.20;99.90;;;;;;5092616;28;20264;-57
2021/05/30 07:52:50;;;;;;;4.30;3.20;;;15.00;99.90;;;;;;5092846;28;20278;-56
2021/05/30 07:55:17;;;;;;;4.23;3.27;;;14.80;99.90;;;;;;5092963;28;20577;-56
2021/05/30 07:57:45;;;;;;;4.10;3.40;;;14.90;99.90;;;;;;5077194;28;20531;-57
2021/05/30 08:00:12;;;;;;;3.97;3.60;;;15.10;99.90;;;;;;5093273;28;20196;-55
2021/05/30 08:02:38;;;;;;;4.53;3.57;;;15.10;99.90;;;;;;5095772;28;20185;-59
2021/05/30 08:05:05;;;;;;;4.03;3.27;;;15.10;99.90;;;;;;5097641;28;20163;-61
2021/05/30 08:07:31;;;;;;;3.80;3.50;;;15.40;99.90;;;;;;5095204;28;20654;-59
2021/05/30 08:09:57;;;;;;;5.30;4.03;;;15.60;99.90;;;;;;5096485;28;20245;-57
2021/05/30 08:12:23;;;;;;;5.10;3.80;;;15.80;99.90;;;;;;5096575;28;20197;-54
2021/05/30 08:14:49;;;;;;;4.23;3.83;;;15.70;99.90;;;;;;5095793;28;20256;-59
2021/05/30 08:17:14;;;;;;;4.33;3.60;;;15.60;99.90;;;;;;5096455;28;20281;-61
2021/05/30 08:19:40;;;;;;;4.10;3.70;;;15.70;99.90;;;;;;5096807;28;20637;-57
2021/05/30 08:22:06;;;;;;;4.67;3.70;;;15.70;99.90;;;;;;5096218;28;20162;-59
2021/05/30 08:24:31;;;;;;;3.73;3.40;;;15.70;99.90;;;;;;5096378;28;20172;-52
2021/05/30 08:26:57;;;;;;;4.33;3.57;;;15.80;99.90;;;;;;5097167;28;20714;-57
2021/05/30 08:29:24;;;;;;;4.80;3.50;;;15.90;99.90;;;;;;5095729;28;20240;-60
2021/05/30 08:31:50;;;;;;;4.13;3.30;;;16.10;99.90;;;;;;5097103;28;20196;-61
2021/05/30 08:34:17;;;;;;;3.53;3.10;;;16.10;99.90;;;;;;5096098;28;20193;-59
2021/05/30 08:36:42;;;;;;;6.80;3.63;;;16.00;99.90;;;;;;5096645;28;20209;-56
2021/05/30 08:39:08;;;;;;;4.33;3.13;;;16.20;99.90;;;;;;5097024;28;20591;-58
2021/05/30 08:41:34;;;;;;;3.50;3.10;;;16.40;99.90;;;;;;5096599;28;20166;-58
2021/05/30 08:44:00;;;;;;;4.83;3.20;;;16.70;99.90;;;;;;5096506;28;20261;-53
2021/05/30 08:46:29;;;;;;;3.13;2.83;;;17.00;99.90;;;;;;5096677;28;20239;-53
2021/05/30 08:48:56;;;;;;;3.37;3.03;;;17.30;97.50;;;;;;5097208;28;20180;-55
2021/05/30 08:51:23;;;;;;;3.10;2.90;;;17.40;98.90;;;;;;5096462;28;20222;-61
2021/05/30 08:53:49;;;;;;;2.90;2.70;;;17.50;99.90;;;;;;5096901;28;20198;-61
2021/05/30 08:56:17;;;;;;;3.03;2.80;;;17.70;99.60;;;;;;5096714;28;20185;-58
2021/05/30 08:58:50;;;;;;;3.33;2.90;;;18.00;98.70;;;;;;5095118;28;20534;-51
2021/05/30 09:01:24;;;;;;;3.30;2.90;;;18.20;97.80;;;;;;5096630;28;20578;-60
2021/05/30 09:04:05;;;;;;;4.30;3.10;;;18.40;98.60;;;;;;5096674;28;20260;-61
2021/05/30 09:06:31;;;;;;;3.63;3.33;;;18.60;98.90;;;;;;5096299;28;20197;-61
2021/05/30 09:08:58;;;;;;;3.60;2.70;;;18.60;97.30;;;;;;5096766;28;20197;-59
2021/05/30 09:11:40;;;;;;;4.43;3.50;;;18.50;94.40;;;;;;5096416;28;20166;-61
2021/05/30 09:14:10;;;;;;;5.27;3.47;;;18.30;99.10;;;;;;5095837;28;20194;-61
2021/05/30 09:16:56;;;;;;;3.93;3.53;;;17.50;95.90;;;;;;5096711;28;20247;-60
2021/05/30 09:19:50;;;;;;;3.57;3.10;;;17.20;99.10;;;;;;5096489;28;20227;-60
2021/05/30 09:22:19;;;;;;;3.47;3.17;;;17.20;99.40;;;;;;5096199;28;20257;-61
2021/05/30 09:24:47;;;;;;;2.83;2.63;;;17.40;99.90;;;;;;5096408;28;20188;-59
2021/05/30 09:27:13;;;;;;;3.57;3.27;;;17.60;99.90;;;;;;5095835;28;20199;-60
2021/05/30 09:29:39;;;;;;;4.03;3.10;;;17.70;99.10;;;;;;5096135;28;20572;-57
2021/05/30 09:32:05;;;;;;;3.90;2.93;;;18.00;96.40;;;;;;5095618;28;20231;-51
2021/05/30 09:34:38;;;;;;;3.10;2.80;;;18.20;99.10;;;;;;5096076;28;20709;-54
2021/05/30 09:37:06;;;;;;;3.07;2.87;;;18.20;95.70;;;;;;5095942;28;20616;-54
2021/05/30 09:39:41;;;;;;;3.37;3.07;;;18.30;97.50;;;;;;5096276;28;20186;-61
2021/05/30 09:42:32;;;;;;;3.07;2.77;;;18.30;97.40;;;;;;5095501;28;20199;-51
2021/05/30 09:45:02;;;;;;;3.30;3.00;;;18.50;98.30;;;;;;5095793;28;20167;-59
2021/05/30 09:47:41;;;;;;;3.83;2.93;;;18.50;96.80;;;;;;5095709;28;20189;-54
2021/05/30 09:50:09;;;;;;;3.40;2.93;;;18.70;96.00;;;;;;5095600;28;20173;-51
2021/05/30 09:52:43;;;;;;;2.77;2.50;;;18.90;98.00;;;;;;5095468;28;20210;-61
2021/05/30 09:55:29;;;;;;;3.20;2.90;;;19.20;96.20;;;;;;5095835;28;20174;-62
2021/05/30 09:58:18;;;;;;;3.33;2.70;;;19.40;94.90;;;;;;5095123;28;20254;-61
2021/05/30 10:00:57;;;;;;;3.73;2.63;;;19.50;90.80;;;;;;5095542;28;20184;-60
2021/05/30 10:03:23;;;;;;;3.03;2.73;;;19.50;91.40;;;;;;5095309;28;20178;-61
2021/05/30 10:05:49;;;;;;;3.00;2.80;;;19.60;93.80;;;;;;5095968;28;20174;-51
2021/05/30 10:08:16;;;;;;;4.30;2.80;;;19.60;96.50;;;;;;5095607;28;20281;-61
2021/05/30 10:10:43;;;;;;;2.90;2.70;;;19.80;95.50;;;;;;5093575;28;20236;-61
2021/05/30 10:13:10;;;;;;;3.23;2.60;;;20.10;95.60;;;;;;5094556;28;20201;-57
2021/05/30 10:15:36;;;;;;;3.35;3.05;;;20.20;92.60;;;;;;5094137;28;20274;-53
2021/05/30 10:18:09;;;;;;;4.13;2.70;;;20.10;89.80;;;;;;5094934;28;20239;-60
2021/05/30 10:20:38;;;;;;;2.97;2.77;;;19.90;86.20;;;;;;5094808;28;20190;-56
2021/05/30 10:23:05;;;;;;;2.77;2.57;;;19.80;90.40;;;;;;5094570;28;20257;-55
2021/05/30 10:25:33;;;;;;;2.73;2.53;;;19.80;90.80;;;;;;5093809;28;20170;-54
2021/05/30 10:28:13;;;;;;;3.33;2.63;;;19.80;87.90;;;;;;5092700;28;20604;-61
2021/05/30 10:30:50;;;;;;;4.87;3.07;;;19.70;90.00;;;;;;5094138;28;20170;-61
2021/05/30 10:33:18;;;;;;;4.20;2.60;;;18.90;88.80;;;;;;5092935;28;20193;-61
2021/05/30 10:35:49;;;;;;;3.00;2.70;;;18.70;93.60;;;;;;5094031;28;20181;-60
2021/05/30 10:38:39;;;;;;;3.07;2.80;;;18.50;90.90;;;;;;5093707;28;20573;-61
2021/05/30 10:41:23;;;;;;;3.67;2.70;;;18.00;90.40;;;;;;5094322;28;20236;-51
2021/05/30 10:43:49;;;;;;;3.17;2.80;;;17.80;90.20;;;;;;5094669;28;20158;-61
2021/05/30 10:46:15;;;;;;;3.23;2.80;;;17.90;90.40;;;;;;5093219;28;20198;-55
2021/05/30 10:48:41;;;;;;;3.33;2.60;;;18.10;92.80;;;;;;5094911;28;20180;-61
2021/05/30 10:51:17;;;;;;;3.13;2.70;;;18.50;94.00;;;;;;5094518;28;20169;-56
2021/05/30 10:53:49;;;;;;;4.57;2.90;;;18.60;91.60;;;;;;5094986;28;20208;-56
2021/05/30 10:56:18;;;;;;;3.23;2.90;;;18.90;91.20;;;;;;5094592;28;20327;-61
2021/05/30 10:59:05;;;;;;;2.80;2.60;;;19.20;93.40;;;;;;5094904;28;20174;-54
2021/05/30 11:01:34;;;;;;;3.47;2.70;;;19.60;92.80;;;;;;5094208;28;20530;-57
2021/05/30 11:04:24;;;;;;;2.83;2.53;;;20.10;90.80;;;;;;5094824;28;20170;-60
2021/05/30 11:06:55;;;;;;;2.83;2.63;;;20.50;91.10;;;;;;5094221;28;20611;-61
2021/05/30 11:09:22;;;;;;;2.88;2.67;;;20.70;91.00;;;;;;5094139;28;20627;-61
2021/05/30 11:12:19;;;;;;;3.65;2.88;;;20.80;92.30;;;;;;5093881;28;20194;-61
2021/05/30 11:15:06;;;;;;;2.92;2.70;;;21.20;90.00;;;;;;5094240;28;20272;-60
2021/05/30 11:17:45;;;;;;;2.97;2.67;;;21.10;80.10;;;;;;5094182;28;20200;-56
2021/05/30 11:20:15;;;;;;;3.13;2.80;;;21.00;87.10;;;;;;5094239;28;20223;-61
2021/05/30 11:22:50;;;;;;;14.18;3.40;;;20.90;90.70;;;;;;5094581;28;20154;-61
2021/05/30 11:25:22;;;;;;;3.40;3.10;;;20.40;87.90;;;;;;5094004;28;20176;-61
2021/05/30 11:27:51;;;;;;;4.77;3.20;;;19.90;89.30;;;;;;5082187;28;20186;-57
2021/05/30 11:30:45;;;;;;;3.23;2.70;;;19.60;89.20;;;;;;5090726;28;20277;-53
2021/05/30 11:33:15;;;;;;;2.87;2.67;;;19.40;90.10;;;;;;5092284;28;20194;-55
2021/05/30 11:35:42;;;;;;;3.00;2.70;;;19.40;87.60;;;;;;5092008;28;20166;-58
2021/05/30 11:38:08;;;;;;;4.53;2.60;;;19.40;86.30;;;;;;5096795;28;20213;-61
2021/05/30 11:40:35;;;;;;;3.57;2.70;;;19.40;91.10;;;;;;5097643;28;20165;-60
2021/05/30 11:43:30;;;;;;;3.40;3.10;;;19.50;91.30;;;;;;5091130;28;20180;-61
2021/05/30 11:45:55;;;;;;;3.30;2.90;;;19.60;92.90;;;;;;5054874;28;20187;-58
2021/05/30 11:48:21;;;;;;;4.17;3.07;;;19.60;87.80;;;;;;5054861;28;20217;-51
2021/05/30 11:50:53;;;;;;;3.20;2.90;;;19.40;90.00;;;;;;5054844;28;20183;-60
2021/05/30 11:53:30;;;;;;;3.57;3.07;;;19.10;90.20;;;;;;5055050;28;20228;-57
2021/05/30 11:55:57;;;;;;;3.53;3.00;;;18.90;91.40;;;;;;5054113;28;20175;-55
2021/05/30 11:58:23;;;;;;;3.10;2.80;;;19.00;92.80;;;;;;5053258;28;20229;-60
2021/05/30 12:01:03;;;;;;;3.23;2.93;;;19.10;92.20;;;;;;5054876;28;20210;-61
2021/05/30 12:03:29;;;;;;;2.97;2.77;;;19.50;91.20;;;;;;5054422;28;20195;-54
2021/05/30 12:06:02;;;;;;;3.13;2.70;;;19.60;93.00;;;;;;5054774;28;20238;-61
2021/05/30 12:08:29;;;;;;;2.90;2.70;;;19.80;93.00;;;;;;5054624;28;20190;-52
2021/05/30 12:10:57;;;;;;;3.27;2.60;;;20.20;90.70;;;;;;5052786;28;20294;-60
2021/05/30 12:13:26;;;;;;;3.17;2.87;;;20.50;91.30;;;;;;5052440;28;20599;-55
2021/05/30 12:15:52;;;;;;;3.13;2.88;;;20.70;86.60;;;;;;5053362;28;20535;-61
2021/05/30 12:18:17;;;;;;;3.70;2.90;;;20.80;91.20;;;;;;5054346;28;20779;-62
2021/05/30 12:20:44;;;;;;;3.22;2.70;;;21.10;88.70;;;;;;5054929;28;20177;-57
2021/05/30 12:23:22;;;;;;;3.50;2.80;;;21.40;85.20;;;;;;5073477;28;20197;-60
2021/05/30 12:25:47;;;;;;;3.05;2.75;;;21.50;90.90;;;;;;5081180;28;20529;-61
2021/05/30 12:28:13;;;;;;;3.00;2.70;;;21.60;87.70;;;;;;5095809;28;20193;-61
2021/05/30 12:30:38;;;;;;;3.20;2.70;;;21.70;85.50;;;;;;5096065;28;20175;-61
2021/05/30 12:33:04;;;;;;;3.15;2.67;;;21.70;78.80;;;;;;5095604;28;20261;-60
2021/05/30 12:35:56;;;;;;;2.85;2.60;;;21.40;85.60;;;;;;5096131;28;20174;-59
2021/05/30 12:38:26;;;;;;;2.95;2.65;;;21.10;86.10;;;;;;5096571;28;20216;-54
2021/05/30 12:40:52;;;;;;;3.35;2.67;;;20.60;86.30;;;;;;5096832;28;20171;-60
2021/05/30 12:43:31;;;;;;;3.10;2.85;;;20.30;90.10;;;;;;5096694;28;20170;-61
2021/05/30 12:46:02;;;;;;;3.00;2.70;;;20.10;90.00;;;;;;5095444;28;20189;-61
2021/05/30 12:48:41;;;;;;;3.07;2.77;;;19.90;90.50;;;;;;5096850;28;20169;-53
2021/05/30 12:51:18;;;;;;;3.30;3.00;;;19.80;87.00;;;;;;5095594;28;20208;-61
2021/05/30 12:53:46;;;;;;;2.97;2.77;;;19.70;91.20;;;;;;5096754;28;20213;-58